sensor_id;sensor_type;location;lat;lon;timestamp;P1;durP1;ratioP1;P2;durP2;ratioP2
40501;SDS011;29631;49.168;9.848;2022-09-13T00:00:52;3.70;;;3.50;;
40501;SDS011;29631;49.168;9.848;2022-09-13T00:03:19;3.45;;;3.25;;
40501;SDS011;29631;49.168;9.848;2022-09-13T00:05:45;3.72;;;3.53;;
40501;SDS011;29631;49.168;9.848;2022-09-13T00:08:11;3.85;;;3.65;;
40501;SDS011;29631;49.168;9.848;2022-09-13T00:10:38;5.28;;;3.80;;
40501;SDS011;29631;49.168;9.848;2022-09-13T00:13:06;3.85;;;3.65;;
40501;SDS011;29631;49.168;9.848;2022-09-13T00:15:33;3.60;;;3.35;;
40501;SDS011;29631;49.168;9.848;2022-09-13T00:18:00;3.65;;;3.45;;
40501;SDS011;29631;49.168;9.848;2022-09-13T00:20:26;3.55;;;3.35;;
40501;SDS011;29631;49.168;9.848;2022-09-13T00:22:52;3.65;;;3.45;;
40501;SDS011;29631;49.168;9.848;2022-09-13T00:25:18;3.97;;;3.72;;
40501;SDS011;29631;49.168;9.848;2022-09-13T00:27:44;3.58;;;3.38;;
40501;SDS011;29631;49.168;9.848;2022-09-13T00:30:11;3.95;;;3.75;;
40501;SDS011;29631;49.168;9.848;2022-09-13T00:32:37;3.97;;;3.78;;
40501;SDS011;29631;49.168;9.848;2022-09-13T00:35:04;3.70;;;3.50;;
40501;SDS011;29631;49.168;9.848;2022-09-13T00:37:31;3.55;;;3.35;;
40501;SDS011;29631;49.168;9.848;2022-09-13T00:39:58;3.33;;;3.22;;
40501;SDS011;29631;49.168;9.848;2022-09-13T00:42:26;3.33;;;3.22;;
40501;SDS011;29631;49.168;9.848;2022-09-13T00:44:57;3.95;;;3.75;;
40501;SDS011;29631;49.168;9.848;2022-09-13T00:47:35;3.72;;;3.53;;
40501;SDS011;29631;49.168;9.848;2022-09-13T00:52:49;3.47;;;3.28;;
40501;SDS011;29631;49.168;9.848;2022-09-13T00:55:38;3.42;;;3.33;;
40501;SDS011;29631;49.168;9.848;2022-09-13T00:58:31;3.40;;;3.30;;
40501;SDS011;29631;49.168;9.848;2022-09-13T01:01:14;3.42;;;3.33;;
40501;SDS011;29631;49.168;9.848;2022-09-13T01:03:42;3.40;;;3.25;;
40501;SDS011;29631;49.168;9.848;2022-09-13T01:06:19;3.38;;;3.17;;
40501;SDS011;29631;49.168;9.848;2022-09-13T01:08:49;3.97;;;3.70;;
40501;SDS011;29631;49.168;9.848;2022-09-13T01:11:29;3.17;;;3.08;;
40501;SDS011;29631;49.168;9.848;2022-09-13T01:14:05;3.55;;;3.35;;
40501;SDS011;29631;49.168;9.848;2022-09-13T01:16:32;3.67;;;3.47;;
40501;SDS011;29631;49.168;9.848;2022-09-13T01:18:58;3.65;;;3.40;;
40501;SDS011;29631;49.168;9.848;2022-09-13T01:27:14;3.50;;;3.30;;
40501;SDS011;29631;49.168;9.848;2022-09-13T01:30:06;3.60;;;3.40;;
40501;SDS011;29631;49.168;9.848;2022-09-13T01:38:45;3.13;;;3.03;;
40501;SDS011;29631;49.168;9.848;2022-09-13T01:52:58;3.40;;;3.20;;
40501;SDS011;29631;49.168;9.848;2022-09-13T02:01:12;3.65;;;3.45;;
40501;SDS011;29631;49.168;9.848;2022-09-13T02:03:51;3.33;;;3.17;;
40501;SDS011;29631;49.168;9.848;2022-09-13T02:06:42;3.42;;;3.22;;
40501;SDS011;29631;49.168;9.848;2022-09-13T02:09:26;3.45;;;3.25;;
40501;SDS011;29631;49.168;9.848;2022-09-13T02:12:08;4.00;;;3.78;;
40501;SDS011;29631;49.168;9.848;2022-09-13T02:14:43;3.55;;;3.25;;
40501;SDS011;29631;49.168;9.848;2022-09-13T02:17:15;3.45;;;3.15;;
40501;SDS011;29631;49.168;9.848;2022-09-13T02:19:51;3.58;;;3.38;;
40501;SDS011;29631;49.168;9.848;2022-09-13T02:22:31;4.35;;;3.50;;
40501;SDS011;29631;49.168;9.848;2022-09-13T02:25:06;3.30;;;3.20;;
40501;SDS011;29631;49.168;9.848;2022-09-13T02:27:38;3.67;;;3.38;;
40501;SDS011;29631;49.168;9.848;2022-09-13T02:30:09;4.20;;;3.90;;
40501;SDS011;29631;49.168;9.848;2022-09-13T02:32:56;3.72;;;3.53;;
40501;SDS011;29631;49.168;9.848;2022-09-13T02:35:35;3.38;;;3.17;;
40501;SDS011;29631;49.168;9.848;2022-09-13T02:38:19;3.58;;;3.38;;
40501;SDS011;29631;49.168;9.848;2022-09-13T02:41:08;3.28;;;3.08;;
40501;SDS011;29631;49.168;9.848;2022-09-13T02:43:47;3.40;;;3.20;;
40501;SDS011;29631;49.168;9.848;2022-09-13T02:52:06;3.05;;;2.95;;
40501;SDS011;29631;49.168;9.848;2022-09-13T02:54:52;3.45;;;3.25;;
40501;SDS011;29631;49.168;9.848;2022-09-13T03:00:36;3.35;;;3.15;;
40501;SDS011;29631;49.168;9.848;2022-09-13T03:03:03;3.55;;;3.25;;
40501;SDS011;29631;49.168;9.848;2022-09-13T03:05:33;3.40;;;3.30;;
40501;SDS011;29631;49.168;9.848;2022-09-13T03:07:59;3.45;;;3.28;;
40501;SDS011;29631;49.168;9.848;2022-09-13T03:10:26;3.58;;;3.38;;
40501;SDS011;29631;49.168;9.848;2022-09-13T03:19:35;3.22;;;2.92;;
40501;SDS011;29631;49.168;9.848;2022-09-13T03:22:35;3.38;;;3.17;;
40501;SDS011;29631;49.168;9.848;2022-09-13T03:27:55;3.08;;;2.97;;
40501;SDS011;29631;49.168;9.848;2022-09-13T03:30:52;3.35;;;3.15;;
40501;SDS011;29631;49.168;9.848;2022-09-13T03:36:18;3.30;;;3.10;;
40501;SDS011;29631;49.168;9.848;2022-09-13T03:39:02;3.28;;;3.08;;
40501;SDS011;29631;49.168;9.848;2022-09-13T03:42:07;3.22;;;3.08;;
40501;SDS011;29631;49.168;9.848;2022-09-13T03:44:54;3.33;;;3.22;;
40501;SDS011;29631;49.168;9.848;2022-09-13T03:47:22;3.13;;;2.92;;
40501;SDS011;29631;49.168;9.848;2022-09-13T03:49:52;3.22;;;3.03;;
40501;SDS011;29631;49.168;9.848;2022-09-13T03:52:20;3.13;;;2.92;;
40501;SDS011;29631;49.168;9.848;2022-09-13T03:54:46;3.08;;;2.97;;
40501;SDS011;29631;49.168;9.848;2022-09-13T03:57:13;3.42;;;3.30;;
40501;SDS011;29631;49.168;9.848;2022-09-13T03:59:54;3.58;;;3.38;;
40501;SDS011;29631;49.168;9.848;2022-09-13T04:02:22;3.17;;;3.05;;
40501;SDS011;29631;49.168;9.848;2022-09-13T04:04:50;3.92;;;3.72;;
40501;SDS011;29631;49.168;9.848;2022-09-13T04:07:17;3.88;;;3.67;;
40501;SDS011;29631;49.168;9.848;2022-09-13T04:09:45;3.55;;;3.28;;
40501;SDS011;29631;49.168;9.848;2022-09-13T04:12:12;3.13;;;3.03;;
40501;SDS011;29631;49.168;9.848;2022-09-13T04:14:40;3.60;;;3.40;;
40501;SDS011;29631;49.168;9.848;2022-09-13T04:17:07;3.75;;;3.55;;
40501;SDS011;29631;49.168;9.848;2022-09-13T04:19:34;3.33;;;3.13;;
40501;SDS011;29631;49.168;9.848;2022-09-13T04:22:00;3.28;;;3.08;;
40501;SDS011;29631;49.168;9.848;2022-09-13T04:24:27;3.67;;;3.47;;
40501;SDS011;29631;49.168;9.848;2022-09-13T04:26:54;3.22;;;3.10;;
40501;SDS011;29631;49.168;9.848;2022-09-13T04:29:20;3.30;;;3.10;;
40501;SDS011;29631;49.168;9.848;2022-09-13T04:31:49;3.40;;;3.20;;
40501;SDS011;29631;49.168;9.848;2022-09-13T04:34:16;3.13;;;2.95;;
40501;SDS011;29631;49.168;9.848;2022-09-13T04:36:43;3.40;;;3.20;;
40501;SDS011;29631;49.168;9.848;2022-09-13T04:39:10;3.78;;;3.42;;
40501;SDS011;29631;49.168;9.848;2022-09-13T04:41:38;3.47;;;3.28;;
40501;SDS011;29631;49.168;9.848;2022-09-13T04:44:05;3.67;;;3.47;;
40501;SDS011;29631;49.168;9.848;2022-09-13T04:46:31;3.28;;;3.08;;
40501;SDS011;29631;49.168;9.848;2022-09-13T04:48:56;3.20;;;3.10;;
40501;SDS011;29631;49.168;9.848;2022-09-13T04:51:22;3.75;;;3.45;;
40501;SDS011;29631;49.168;9.848;2022-09-13T04:53:52;3.60;;;3.40;;
40501;SDS011;29631;49.168;9.848;2022-09-13T04:56:20;3.50;;;3.20;;
40501;SDS011;29631;49.168;9.848;2022-09-13T04:58:51;3.40;;;3.20;;
40501;SDS011;29631;49.168;9.848;2022-09-13T05:01:19;3.28;;;3.08;;
40501;SDS011;29631;49.168;9.848;2022-09-13T05:03:46;3.67;;;3.47;;
40501;SDS011;29631;49.168;9.848;2022-09-13T05:06:15;3.53;;;3.33;;
40501;SDS011;29631;49.168;9.848;2022-09-13T05:08:42;3.72;;;3.53;;
40501;SDS011;29631;49.168;9.848;2022-09-13T05:11:08;3.05;;;2.95;;
40501;SDS011;29631;49.168;9.848;2022-09-13T05:13:35;4.00;;;3.80;;
40501;SDS011;29631;49.168;9.848;2022-09-13T05:16:02;3.45;;;3.25;;
40501;SDS011;29631;49.168;9.848;2022-09-13T05:18:35;3.30;;;3.10;;
40501;SDS011;29631;49.168;9.848;2022-09-13T05:21:02;3.28;;;2.97;;
40501;SDS011;29631;49.168;9.848;2022-09-13T05:23:29;3.20;;;3.03;;
40501;SDS011;29631;49.168;9.848;2022-09-13T05:26:00;3.60;;;3.30;;
40501;SDS011;29631;49.168;9.848;2022-09-13T05:28:29;3.20;;;3.00;;
40501;SDS011;29631;49.168;9.848;2022-09-13T05:33:26;3.35;;;3.20;;
40501;SDS011;29631;49.168;9.848;2022-09-13T05:35:55;2.85;;;2.75;;
40501;SDS011;29631;49.168;9.848;2022-09-13T05:38:22;3.55;;;3.35;;
40501;SDS011;29631;49.168;9.848;2022-09-13T05:40:52;3.45;;;3.15;;
40501;SDS011;29631;49.168;9.848;2022-09-13T05:43:21;3.30;;;3.10;;
40501;SDS011;29631;49.168;9.848;2022-09-13T05:45:58;3.95;;;3.75;;
40501;SDS011;29631;49.168;9.848;2022-09-13T05:48:44;3.38;;;3.17;;
40501;SDS011;29631;49.168;9.848;2022-09-13T05:51:15;3.65;;;3.33;;
40501;SDS011;29631;49.168;9.848;2022-09-13T05:53:47;3.88;;;3.67;;
40501;SDS011;29631;49.168;9.848;2022-09-13T05:56:18;3.90;;;3.67;;
40501;SDS011;29631;49.168;9.848;2022-09-13T05:58:48;3.78;;;3.47;;
40501;SDS011;29631;49.168;9.848;2022-09-13T06:01:16;3.22;;;3.03;;
40501;SDS011;29631;49.168;9.848;2022-09-13T06:03:48;3.10;;;2.90;;
40501;SDS011;29631;49.168;9.848;2022-09-13T06:06:15;3.05;;;2.95;;
40501;SDS011;29631;49.168;9.848;2022-09-13T06:08:41;3.00;;;2.90;;
40501;SDS011;29631;49.168;9.848;2022-09-13T06:11:09;2.72;;;2.63;;
40501;SDS011;29631;49.168;9.848;2022-09-13T06:13:36;2.90;;;2.80;;
40501;SDS011;29631;49.168;9.848;2022-09-13T06:16:04;3.25;;;3.05;;
40501;SDS011;29631;49.168;9.848;2022-09-13T06:18:33;2.80;;;2.70;;
40501;SDS011;29631;49.168;9.848;2022-09-13T06:21:10;3.40;;;3.20;;
40501;SDS011;29631;49.168;9.848;2022-09-13T06:23:51;3.15;;;2.75;;
40501;SDS011;29631;49.168;9.848;2022-09-13T06:26:19;2.70;;;2.60;;
40501;SDS011;29631;49.168;9.848;2022-09-13T06:28:48;2.75;;;2.65;;
40501;SDS011;29631;49.168;9.848;2022-09-13T06:31:17;2.70;;;2.60;;
40501;SDS011;29631;49.168;9.848;2022-09-13T06:33:46;3.15;;;2.85;;
40501;SDS011;29631;49.168;9.848;2022-09-13T06:36:13;3.28;;;3.08;;
40501;SDS011;29631;49.168;9.848;2022-09-13T06:38:42;3.00;;;2.80;;
40501;SDS011;29631;49.168;9.848;2022-09-13T06:41:10;2.83;;;2.72;;
40501;SDS011;29631;49.168;9.848;2022-09-13T06:43:38;2.80;;;2.70;;
40501;SDS011;29631;49.168;9.848;2022-09-13T06:46:06;2.47;;;2.38;;
40501;SDS011;29631;49.168;9.848;2022-09-13T06:48:38;2.75;;;2.55;;
40501;SDS011;29631;49.168;9.848;2022-09-13T06:51:12;2.72;;;2.63;;
40501;SDS011;29631;49.168;9.848;2022-09-13T06:53:45;2.63;;;2.47;;
40501;SDS011;29631;49.168;9.848;2022-09-13T06:56:13;2.40;;;2.35;;
40501;SDS011;29631;49.168;9.848;2022-09-13T06:58:40;2.55;;;2.35;;
40501;SDS011;29631;49.168;9.848;2022-09-13T07:01:15;2.40;;;2.30;;
40501;SDS011;29631;49.168;9.848;2022-09-13T07:03:45;2.30;;;2.20;;
40501;SDS011;29631;49.168;9.848;2022-09-13T07:06:18;2.00;;;2.00;;
40501;SDS011;29631;49.168;9.848;2022-09-13T07:08:45;1.90;;;1.90;;
40501;SDS011;29631;49.168;9.848;2022-09-13T07:11:13;2.40;;;2.25;;
40501;SDS011;29631;49.168;9.848;2022-09-13T07:13:42;2.25;;;2.15;;
40501;SDS011;29631;49.168;9.848;2022-09-13T07:16:20;2.10;;;2.00;;
40501;SDS011;29631;49.168;9.848;2022-09-13T07:19:06;1.92;;;1.83;;
40501;SDS011;29631;49.168;9.848;2022-09-13T07:21:36;1.70;;;1.70;;
40501;SDS011;29631;49.168;9.848;2022-09-13T07:24:02;1.50;;;1.50;;
40501;SDS011;29631;49.168;9.848;2022-09-13T07:26:29;2.00;;;1.90;;
40501;SDS011;29631;49.168;9.848;2022-09-13T07:28:57;2.10;;;2.00;;
40501;SDS011;29631;49.168;9.848;2022-09-13T07:31:25;2.03;;;1.90;;
40501;SDS011;29631;49.168;9.848;2022-09-13T07:33:56;1.67;;;1.67;;
40501;SDS011;29631;49.168;9.848;2022-09-13T07:36:24;1.65;;;1.55;;
40501;SDS011;29631;49.168;9.848;2022-09-13T07:38:51;2.10;;;1.95;;
40501;SDS011;29631;49.168;9.848;2022-09-13T07:41:19;1.50;;;1.50;;
40501;SDS011;29631;49.168;9.848;2022-09-13T07:43:47;1.70;;;1.60;;
40501;SDS011;29631;49.168;9.848;2022-09-13T07:46:14;1.45;;;1.45;;
40501;SDS011;29631;49.168;9.848;2022-09-13T07:48:45;1.92;;;1.65;;
40501;SDS011;29631;49.168;9.848;2022-09-13T07:53:44;1.65;;;1.60;;
40501;SDS011;29631;49.168;9.848;2022-09-13T07:56:12;1.50;;;1.50;;
40501;SDS011;29631;49.168;9.848;2022-09-13T07:58:40;1.80;;;1.70;;
40501;SDS011;29631;49.168;9.848;2022-09-13T08:01:10;1.85;;;1.75;;
40501;SDS011;29631;49.168;9.848;2022-09-13T08:03:37;1.77;;;1.73;;
40501;SDS011;29631;49.168;9.848;2022-09-13T08:06:04;1.80;;;1.70;;
40501;SDS011;29631;49.168;9.848;2022-09-13T08:08:31;1.70;;;1.60;;
40501;SDS011;29631;49.168;9.848;2022-09-13T08:10:58;1.45;;;1.45;;
40501;SDS011;29631;49.168;9.848;2022-09-13T08:13:25;1.70;;;1.60;;
40501;SDS011;29631;49.168;9.848;2022-09-13T08:15:52;2.05;;;1.95;;
40501;SDS011;29631;49.168;9.848;2022-09-13T08:18:19;2.05;;;1.75;;
40501;SDS011;29631;49.168;9.848;2022-09-13T08:20:45;1.60;;;1.50;;
40501;SDS011;29631;49.168;9.848;2022-09-13T08:23:11;1.58;;;1.58;;
40501;SDS011;29631;49.168;9.848;2022-09-13T08:25:38;1.85;;;1.85;;
40501;SDS011;29631;49.168;9.848;2022-09-13T08:28:05;1.40;;;1.40;;
40501;SDS011;29631;49.168;9.848;2022-09-13T08:30:42;1.42;;;1.42;;
40501;SDS011;29631;49.168;9.848;2022-09-13T08:33:11;1.80;;;1.70;;
40501;SDS011;29631;49.168;9.848;2022-09-13T08:35:37;1.98;;;1.88;;
40501;SDS011;29631;49.168;9.848;2022-09-13T08:38:04;1.40;;;1.40;;
40501;SDS011;29631;49.168;9.848;2022-09-13T08:40:31;1.70;;;1.70;;
40501;SDS011;29631;49.168;9.848;2022-09-13T08:45:53;1.52;;;1.42;;
40501;SDS011;29631;49.168;9.848;2022-09-13T08:48:41;1.50;;;1.50;;
40501;SDS011;29631;49.168;9.848;2022-09-13T08:51:18;1.48;;;1.38;;
40501;SDS011;29631;49.168;9.848;2022-09-13T08:54:00;1.40;;;1.40;;
40501;SDS011;29631;49.168;9.848;2022-09-13T08:59:31;1.30;;;1.30;;
40501;SDS011;29631;49.168;9.848;2022-09-13T09:03:07;1.80;;;1.70;;
40501;SDS011;29631;49.168;9.848;2022-09-13T09:05:50;1.90;;;1.80;;
40501;SDS011;29631;49.168;9.848;2022-09-13T09:08:37;1.83;;;1.75;;
40501;SDS011;29631;49.168;9.848;2022-09-13T09:11:14;1.60;;;1.60;;
40501;SDS011;29631;49.168;9.848;2022-09-13T09:14:16;1.80;;;1.80;;
40501;SDS011;29631;49.168;9.848;2022-09-13T09:17:03;1.65;;;1.65;;
40501;SDS011;29631;49.168;9.848;2022-09-13T09:19:37;1.77;;;1.77;;
40501;SDS011;29631;49.168;9.848;2022-09-13T09:22:16;1.92;;;1.92;;
40501;SDS011;29631;49.168;9.848;2022-09-13T09:24:47;1.83;;;1.80;;
40501;SDS011;29631;49.168;9.848;2022-09-13T09:27:18;1.90;;;1.90;;
40501;SDS011;29631;49.168;9.848;2022-09-13T09:29:46;2.10;;;2.00;;
40501;SDS011;29631;49.168;9.848;2022-09-13T09:41:25;2.22;;;2.08;;
40501;SDS011;29631;49.168;9.848;2022-09-13T09:46:50;4.68;;;1.80;;
40501;SDS011;29631;49.168;9.848;2022-09-13T09:53:17;1.60;;;1.60;;
40501;SDS011;29631;49.168;9.848;2022-09-13T09:55:41;2.25;;;1.98;;
40501;SDS011;29631;49.168;9.848;2022-09-13T09:58:16;1.73;;;1.63;;
40501;SDS011;29631;49.168;9.848;2022-09-13T10:00:53;1.98;;;1.60;;
40501;SDS011;29631;49.168;9.848;2022-09-13T10:03:28;1.70;;;1.60;;
40501;SDS011;29631;49.168;9.848;2022-09-13T10:06:07;2.00;;;1.90;;
40501;SDS011;29631;49.168;9.848;2022-09-13T10:08:37;1.95;;;1.85;;
40501;SDS011;29631;49.168;9.848;2022-09-13T10:11:06;1.70;;;1.70;;
40501;SDS011;29631;49.168;9.848;2022-09-13T10:13:33;1.92;;;1.83;;
40501;SDS011;29631;49.168;9.848;2022-09-13T10:16:03;5.00;;;1.85;;
40501;SDS011;29631;49.168;9.848;2022-09-13T10:18:47;2.38;;;1.63;;
40501;SDS011;29631;49.168;9.848;2022-09-13T10:23:48;3.30;;;1.80;;
40501;SDS011;29631;49.168;9.848;2022-09-13T10:26:16;3.08;;;1.67;;
40501;SDS011;29631;49.168;9.848;2022-09-13T10:31:41;1.85;;;1.77;;
40501;SDS011;29631;49.168;9.848;2022-09-13T10:36:59;1.98;;;1.70;;
40501;SDS011;29631;49.168;9.848;2022-09-13T10:39:46;1.40;;;1.40;;
40501;SDS011;29631;49.168;9.848;2022-09-13T10:42:23;1.30;;;1.30;;
40501;SDS011;29631;49.168;9.848;2022-09-13T10:45:18;3.70;;;1.20;;
40501;SDS011;29631;49.168;9.848;2022-09-13T10:47:47;2.22;;;1.20;;
40501;SDS011;29631;49.168;9.848;2022-09-13T10:50:18;1.20;;;1.20;;
40501;SDS011;29631;49.168;9.848;2022-09-13T10:52:52;1.65;;;1.63;;
40501;SDS011;29631;49.168;9.848;2022-09-13T10:55:37;1.48;;;1.40;;
40501;SDS011;29631;49.168;9.848;2022-09-13T11:00:34;1.90;;;1.27;;
40501;SDS011;29631;49.168;9.848;2022-09-13T11:03:49;1.60;;;1.10;;
40501;SDS011;29631;49.168;9.848;2022-09-13T11:10:18;3.05;;;1.00;;
40501;SDS011;29631;49.168;9.848;2022-09-13T11:15:35;1.40;;;0.77;;
40501;SDS011;29631;49.168;9.848;2022-09-13T11:18:26;1.00;;;1.00;;
40501;SDS011;29631;49.168;9.848;2022-09-13T11:21:23;1.20;;;1.17;;
40501;SDS011;29631;49.168;9.848;2022-09-13T11:24:19;1.25;;;1.15;;
40501;SDS011;29631;49.168;9.848;2022-09-13T11:30:20;2.50;;;1.10;;
40501;SDS011;29631;49.168;9.848;2022-09-13T11:35:42;0.95;;;0.95;;
40501;SDS011;29631;49.168;9.848;2022-09-13T11:38:16;3.05;;;1.02;;
40501;SDS011;29631;49.168;9.848;2022-09-13T11:41:17;1.15;;;1.10;;
40501;SDS011;29631;49.168;9.848;2022-09-13T11:44:10;1.23;;;1.10;;
40501;SDS011;29631;49.168;9.848;2022-09-13T11:47:05;1.10;;;1.10;;
40501;SDS011;29631;49.168;9.848;2022-09-13T11:55:25;0.88;;;0.88;;
40501;SDS011;29631;49.168;9.848;2022-09-13T11:58:12;0.80;;;0.80;;
40501;SDS011;29631;49.168;9.848;2022-09-13T12:00:59;5.68;;;0.98;;
40501;SDS011;29631;49.168;9.848;2022-09-13T12:03:33;1.70;;;1.10;;
40501;SDS011;29631;49.168;9.848;2022-09-13T12:06:20;1.10;;;0.98;;
40501;SDS011;29631;49.168;9.848;2022-09-13T12:09:14;0.95;;;0.90;;
40501;SDS011;29631;49.168;9.848;2022-09-13T12:12:18;0.70;;;0.70;;
40501;SDS011;29631;49.168;9.848;2022-09-13T12:17:44;0.80;;;0.80;;
40501;SDS011;29631;49.168;9.848;2022-09-13T12:20:28;1.00;;;1.00;;
40501;SDS011;29631;49.168;9.848;2022-09-13T12:23:10;1.50;;;0.80;;
40501;SDS011;29631;49.168;9.848;2022-09-13T12:25:49;0.70;;;0.70;;
40501;SDS011;29631;49.168;9.848;2022-09-13T12:28:28;0.90;;;0.90;;
40501;SDS011;29631;49.168;9.848;2022-09-13T12:31:15;4.68;;;0.77;;
40501;SDS011;29631;49.168;9.848;2022-09-13T12:33:44;1.63;;;0.95;;
40501;SDS011;29631;49.168;9.848;2022-09-13T12:44:39;0.82;;;0.82;;
40501;SDS011;29631;49.168;9.848;2022-09-13T12:50:44;0.80;;;0.75;;
40501;SDS011;29631;49.168;9.848;2022-09-13T12:56:02;0.80;;;0.80;;
40501;SDS011;29631;49.168;9.848;2022-09-13T13:01:52;2.72;;;0.85;;
40501;SDS011;29631;49.168;9.848;2022-09-13T13:04:26;0.80;;;0.70;;
40501;SDS011;29631;49.168;9.848;2022-09-13T13:07:03;1.10;;;1.10;;
40501;SDS011;29631;49.168;9.848;2022-09-13T13:09:43;0.80;;;0.80;;
40501;SDS011;29631;49.168;9.848;2022-09-13T13:12:32;1.27;;;0.70;;
40501;SDS011;29631;49.168;9.848;2022-09-13T13:15:06;0.90;;;0.90;;
40501;SDS011;29631;49.168;9.848;2022-09-13T13:17:51;2.92;;;0.98;;
40501;SDS011;29631;49.168;9.848;2022-09-13T13:34:02;2.38;;;1.20;;
40501;SDS011;29631;49.168;9.848;2022-09-13T13:36:43;0.90;;;0.90;;
40501;SDS011;29631;49.168;9.848;2022-09-13T13:46:53;1.40;;;1.13;;
40501;SDS011;29631;49.168;9.848;2022-09-13T13:57:33;1.08;;;1.05;;
40501;SDS011;29631;49.168;9.848;2022-09-13T14:00:16;2.85;;;1.05;;
40501;SDS011;29631;49.168;9.848;2022-09-13T14:16:49;1.02;;;1.02;;
40501;SDS011;29631;49.168;9.848;2022-09-13T14:19:40;1.80;;;1.05;;
40501;SDS011;29631;49.168;9.848;2022-09-13T14:27:19;1.15;;;1.15;;
40501;SDS011;29631;49.168;9.848;2022-09-13T14:30:04;1.60;;;1.50;;
40501;SDS011;29631;49.168;9.848;2022-09-13T14:32:52;1.40;;;1.40;;
40501;SDS011;29631;49.168;9.848;2022-09-13T14:35:28;1.40;;;1.30;;
40501;SDS011;29631;49.168;9.848;2022-09-13T14:38:22;1.25;;;1.20;;
40501;SDS011;29631;49.168;9.848;2022-09-13T14:40:57;1.20;;;1.20;;
40501;SDS011;29631;49.168;9.848;2022-09-13T14:43:28;1.10;;;1.10;;
40501;SDS011;29631;49.168;9.848;2022-09-13T14:45:59;1.10;;;1.10;;
40501;SDS011;29631;49.168;9.848;2022-09-13T14:49:06;1.33;;;1.20;;
40501;SDS011;29631;49.168;9.848;2022-09-13T14:51:49;1.75;;;1.27;;
40501;SDS011;29631;49.168;9.848;2022-09-13T14:54:56;2.75;;;1.45;;
40501;SDS011;29631;49.168;9.848;2022-09-13T14:57:45;1.33;;;1.30;;
40501;SDS011;29631;49.168;9.848;2022-09-13T15:00:17;1.20;;;1.20;;
40501;SDS011;29631;49.168;9.848;2022-09-13T15:02:48;1.25;;;1.20;;
40501;SDS011;29631;49.168;9.848;2022-09-13T15:05:27;1.33;;;1.25;;
40501;SDS011;29631;49.168;9.848;2022-09-13T15:07:57;2.88;;;1.40;;
40501;SDS011;29631;49.168;9.848;2022-09-13T15:10:24;2.25;;;1.30;;
40501;SDS011;29631;49.168;9.848;2022-09-13T15:20:58;1.20;;;1.20;;
40501;SDS011;29631;49.168;9.848;2022-09-13T15:23:28;1.85;;;1.35;;
40501;SDS011;29631;49.168;9.848;2022-09-13T15:26:12;1.40;;;1.40;;
40501;SDS011;29631;49.168;9.848;2022-09-13T15:28:51;2.50;;;1.77;;
40501;SDS011;29631;49.168;9.848;2022-09-13T15:31:32;1.70;;;1.60;;
40501;SDS011;29631;49.168;9.848;2022-09-13T15:36:46;2.47;;;2.28;;
40501;SDS011;29631;49.168;9.848;2022-09-13T15:39:25;1.92;;;1.83;;
40501;SDS011;29631;49.168;9.848;2022-09-13T15:41:55;2.38;;;2.17;;
40501;SDS011;29631;49.168;9.848;2022-09-13T15:44:24;4.10;;;1.80;;
40501;SDS011;29631;49.168;9.848;2022-09-13T15:47:06;2.42;;;1.73;;
40501;SDS011;29631;49.168;9.848;2022-09-13T15:49:47;1.88;;;1.42;;
40501;SDS011;29631;49.168;9.848;2022-09-13T15:52:16;3.55;;;1.30;;
40501;SDS011;29631;49.168;9.848;2022-09-13T15:54:47;1.83;;;1.25;;
40501;SDS011;29631;49.168;9.848;2022-09-13T15:59:50;2.70;;;1.40;;
40501;SDS011;29631;49.168;9.848;2022-09-13T16:04:47;2.08;;;1.55;;
40501;SDS011;29631;49.168;9.848;2022-09-13T16:07:14;1.50;;;1.50;;
40501;SDS011;29631;49.168;9.848;2022-09-13T16:09:40;1.50;;;1.40;;
40501;SDS011;29631;49.168;9.848;2022-09-13T16:12:06;4.10;;;1.50;;
40501;SDS011;29631;49.168;9.848;2022-09-13T16:14:32;1.48;;;1.38;;
40501;SDS011;29631;49.168;9.848;2022-09-13T16:17:03;2.05;;;1.40;;
40501;SDS011;29631;49.168;9.848;2022-09-13T16:19:34;1.52;;;1.20;;
40501;SDS011;29631;49.168;9.848;2022-09-13T16:22:00;2.00;;;1.52;;
40501;SDS011;29631;49.168;9.848;2022-09-13T16:24:26;1.52;;;1.42;;
40501;SDS011;29631;49.168;9.848;2022-09-13T16:26:52;1.33;;;1.30;;
40501;SDS011;29631;49.168;9.848;2022-09-13T16:29:18;2.38;;;1.52;;
40501;SDS011;29631;49.168;9.848;2022-09-13T16:31:44;1.60;;;1.50;;
40501;SDS011;29631;49.168;9.848;2022-09-13T16:34:10;1.60;;;1.50;;
40501;SDS011;29631;49.168;9.848;2022-09-13T16:36:36;1.48;;;1.48;;
40501;SDS011;29631;49.168;9.848;2022-09-13T16:39:01;1.67;;;1.58;;
40501;SDS011;29631;49.168;9.848;2022-09-13T16:41:28;1.83;;;1.50;;
40501;SDS011;29631;49.168;9.848;2022-09-13T16:43:54;1.95;;;1.70;;
40501;SDS011;29631;49.168;9.848;2022-09-13T16:46:20;1.70;;;1.60;;
40501;SDS011;29631;49.168;9.848;2022-09-13T16:48:51;1.67;;;1.30;;
40501;SDS011;29631;49.168;9.848;2022-09-13T16:51:20;4.25;;;1.50;;
40501;SDS011;29631;49.168;9.848;2022-09-13T16:53:48;1.50;;;1.40;;
40501;SDS011;29631;49.168;9.848;2022-09-13T16:56:17;1.30;;;1.30;;
40501;SDS011;29631;49.168;9.848;2022-09-13T16:58:45;1.55;;;1.45;;
40501;SDS011;29631;49.168;9.848;2022-09-13T17:01:12;1.70;;;1.60;;
40501;SDS011;29631;49.168;9.848;2022-09-13T17:03:41;2.83;;;1.88;;
40501;SDS011;29631;49.168;9.848;2022-09-13T17:06:08;3.10;;;1.73;;
40501;SDS011;29631;49.168;9.848;2022-09-13T17:08:37;5.97;;;1.73;;
40501;SDS011;29631;49.168;9.848;2022-09-13T17:11:06;3.38;;;1.58;;
40501;SDS011;29631;49.168;9.848;2022-09-13T17:13:36;1.98;;;1.85;;
40501;SDS011;29631;49.168;9.848;2022-09-13T17:16:03;1.77;;;1.77;;
40501;SDS011;29631;49.168;9.848;2022-09-13T17:18:31;1.67;;;1.58;;
40501;SDS011;29631;49.168;9.848;2022-09-13T17:20:58;1.90;;;1.85;;
40501;SDS011;29631;49.168;9.848;2022-09-13T17:23:24;3.53;;;3.05;;
40501;SDS011;29631;49.168;9.848;2022-09-13T17:25:50;3.95;;;3.65;;
40501;SDS011;29631;49.168;9.848;2022-09-13T17:28:16;4.25;;;3.95;;
40501;SDS011;29631;49.168;9.848;2022-09-13T17:30:43;3.28;;;3.05;;
40501;SDS011;29631;49.168;9.848;2022-09-13T17:33:10;3.10;;;2.53;;
40501;SDS011;29631;49.168;9.848;2022-09-13T17:35:37;1.92;;;1.83;;
40501;SDS011;29631;49.168;9.848;2022-09-13T17:38:02;2.78;;;1.80;;
40501;SDS011;29631;49.168;9.848;2022-09-13T17:40:29;1.83;;;1.73;;
40501;SDS011;29631;49.168;9.848;2022-09-13T17:42:56;1.52;;;1.42;;
40501;SDS011;29631;49.168;9.848;2022-09-13T17:45:23;1.88;;;1.77;;
40501;SDS011;29631;49.168;9.848;2022-09-13T17:47:52;1.50;;;1.50;;
40501;SDS011;29631;49.168;9.848;2022-09-13T17:50:20;5.85;;;2.40;;
40501;SDS011;29631;49.168;9.848;2022-09-13T17:52:47;1.90;;;1.80;;
40501;SDS011;29631;49.168;9.848;2022-09-13T17:55:13;2.15;;;1.92;;
40501;SDS011;29631;49.168;9.848;2022-09-13T17:57:39;1.55;;;1.55;;
40501;SDS011;29631;49.168;9.848;2022-09-13T18:00:05;3.05;;;1.77;;
40501;SDS011;29631;49.168;9.848;2022-09-13T18:02:42;1.70;;;1.60;;
40501;SDS011;29631;49.168;9.848;2022-09-13T18:05:08;1.65;;;1.50;;
40501;SDS011;29631;49.168;9.848;2022-09-13T18:07:34;2.95;;;1.70;;
40501;SDS011;29631;49.168;9.848;2022-09-13T18:10:00;2.67;;;1.80;;
40501;SDS011;29631;49.168;9.848;2022-09-13T18:12:25;1.70;;;1.60;;
40501;SDS011;29631;49.168;9.848;2022-09-13T18:14:51;1.48;;;1.48;;
40501;SDS011;29631;49.168;9.848;2022-09-13T18:17:17;2.70;;;1.60;;
40501;SDS011;29631;49.168;9.848;2022-09-13T18:19:43;1.95;;;1.50;;
40501;SDS011;29631;49.168;9.848;2022-09-13T18:22:08;3.83;;;1.38;;
40501;SDS011;29631;49.168;9.848;2022-09-13T18:24:34;3.58;;;1.40;;
40501;SDS011;29631;49.168;9.848;2022-09-13T18:27:00;2.40;;;1.33;;
40501;SDS011;29631;49.168;9.848;2022-09-13T18:29:27;3.25;;;1.80;;
40501;SDS011;29631;49.168;9.848;2022-09-13T18:31:55;1.92;;;1.65;;
40501;SDS011;29631;49.168;9.848;2022-09-13T18:34:21;3.15;;;1.67;;
40501;SDS011;29631;49.168;9.848;2022-09-13T18:36:47;2.03;;;1.75;;